createdAt,value
2023-03-25T15:32:29.678Z,16.23
2023-03-25T15:35:32.588Z,16.23
2023-03-25T15:38:57.510Z,15.64
2023-03-25T15:42:45.039Z,15.78
2023-03-25T15:46:09.198Z,15.77
2023-03-25T15:49:40.782Z,15.65
2023-03-25T15:53:19.768Z,15.72
2023-03-25T15:56:29.336Z,15.64
2023-03-25T15:59:43.179Z,15.30
2023-03-25T16:02:49.686Z,15.42
2023-03-25T16:05:57.998Z,15.24
2023-03-25T16:09:03.074Z,15.17
2023-03-25T16:12:10.089Z,15.28
2023-03-25T16:15:18.299Z,15.33
2023-03-25T16:18:23.390Z,15.18
2023-03-25T16:21:29.996Z,15.20
2023-03-25T16:24:34.186Z,15.27
2023-03-25T16:27:42.068Z,15.25
2023-03-25T16:30:56.219Z,15.22
2023-03-25T16:34:00.476Z,15.09
2023-03-25T16:37:04.483Z,15.04
2023-03-25T16:40:07.550Z,14.93
2023-03-25T16:43:17.652Z,14.99
2023-03-25T16:46:21.342Z,14.82
2023-03-25T16:49:31.878Z,14.84
2023-03-25T16:52:35.161Z,14.61
2023-03-25T16:55:49.042Z,14.69
2023-03-25T16:58:59.176Z,14.61
2023-03-25T17:02:03.528Z,14.70
2023-03-25T17:05:16.164Z,14.59
2023-03-25T17:08:21.613Z,14.63
2023-03-25T17:11:27.868Z,14.63
2023-03-25T17:14:37.020Z,14.62
2023-03-25T17:17:51.687Z,14.42
2023-03-25T17:20:58.116Z,14.59
2023-03-25T17:24:05.744Z,14.47
2023-03-25T17:27:20.985Z,14.29
2023-03-25T17:30:29.046Z,14.23
2023-03-25T17:33:36.006Z,14.32
2023-03-25T17:36:41.500Z,14.26
2023-03-25T17:39:48.883Z,14.18
2023-03-25T17:42:56.418Z,13.99
2023-03-25T17:46:00.753Z,14.04
2023-03-25T17:49:18.022Z,14.01
2023-03-25T17:52:20.840Z,14.01
2023-03-25T17:55:23.396Z,14.00
2023-03-25T17:58:26.483Z,14.09
2023-03-25T18:01:30.963Z,14.09
2023-03-25T18:04:33.670Z,13.97
2023-03-25T18:07:36.325Z,13.93
2023-03-25T18:10:39.582Z,13.98
2023-03-25T18:13:48.206Z,13.87
2023-03-25T18:16:51.926Z,13.90
2023-03-25T18:19:54.308Z,13.82
2023-03-25T18:22:57.151Z,13.91
2023-03-25T18:26:00.016Z,13.91
2023-03-25T18:29:05.286Z,13.86
2023-03-25T18:32:07.804Z,13.71
2023-03-25T18:35:10.484Z,13.73
2023-03-25T18:38:24.613Z,13.61
2023-03-25T18:41:27.392Z,13.48
2023-03-25T18:44:30.814Z,13.54
2023-03-25T18:47:33.524Z,13.43
2023-03-25T18:50:38.734Z,13.43
2023-03-25T18:53:41.767Z,13.41
2023-03-25T18:56:44.562Z,13.34
2023-03-25T18:59:47.285Z,13.33
2023-03-25T19:02:53.007Z,13.16
2023-03-25T19:05:57.029Z,13.19
2023-03-25T19:08:59.421Z,13.06
2023-03-25T19:12:02.193Z,13.09
2023-03-25T19:15:04.968Z,13.12
2023-03-25T19:18:07.669Z,13.17
2023-03-25T19:21:15.076Z,13.15
2023-03-25T19:24:17.700Z,13.12
2023-03-25T19:27:20.218Z,13.08
2023-03-25T19:30:24.540Z,13.06
2023-03-25T19:33:31.057Z,13.00
2023-03-25T19:36:35.095Z,13.06
2023-03-25T19:39:37.433Z,12.95
2023-03-25T19:42:40.160Z,13.02
2023-03-25T19:45:42.469Z,12.97
2023-03-25T19:48:46.369Z,12.70
2023-03-25T19:51:48.810Z,12.75
2023-03-25T19:54:51.600Z,12.70
2023-03-25T19:57:54.459Z,12.74
2023-03-25T20:00:57.216Z,12.51
2023-03-25T20:03:59.821Z,12.60
2023-03-25T20:07:02.765Z,12.46
2023-03-25T20:10:18.966Z,12.50
2023-03-25T20:13:22.577Z,12.40
2023-03-25T20:16:25.768Z,12.36
2023-03-25T20:19:28.128Z,12.39
2023-03-25T20:22:31.760Z,12.23
2023-03-25T20:25:34.119Z,12.16
2023-03-25T20:28:37.304Z,12.29
2023-03-25T20:31:39.764Z,12.16
2023-03-25T20:34:42.977Z,12.24
2023-03-25T20:37:48.734Z,12.24
2023-03-25T20:40:54.549Z,12.19
2023-03-25T20:43:56.959Z,12.19
2023-03-25T20:47:00.548Z,12.12
2023-03-25T20:50:03.537Z,12.13
2023-03-25T20:53:06.193Z,12.06
2023-03-25T20:56:08.676Z,12.12
2023-03-25T20:59:14.001Z,12.09
2023-03-25T21:02:17.027Z,11.96
2023-03-25T21:05:19.907Z,11.99
2023-03-25T21:08:22.263Z,12.00
2023-03-25T21:11:24.850Z,11.89
2023-03-25T21:14:27.580Z,11.95
2023-03-25T21:17:30.364Z,12.06
2023-03-25T21:20:33.729Z,12.06
2023-03-25T21:23:36.907Z,11.99
2023-03-25T21:26:39.498Z,11.82
2023-03-25T21:29:42.086Z,11.72
2023-03-25T21:32:44.535Z,11.61
2023-03-25T21:35:53.766Z,11.64
2023-03-25T21:38:59.682Z,11.58
2023-03-25T21:42:10.498Z,11.52
2023-03-25T21:45:16.520Z,11.47
2023-03-25T21:48:21.507Z,11.43
2023-03-25T21:51:26.582Z,11.35
2023-03-25T21:54:30.663Z,11.44
2023-03-25T21:57:39.051Z,11.26
2023-03-25T22:00:42.139Z,11.09
2023-03-25T22:03:47.789Z,11.12
2023-03-25T22:06:50.468Z,11.28
2023-03-25T22:09:53.156Z,11.13
2023-03-25T22:12:55.724Z,11.12
2023-03-25T22:15:58.840Z,11.11
2023-03-25T22:19:01.932Z,11.06
2023-03-25T22:22:04.753Z,10.99
2023-03-25T22:25:08.250Z,11.08
2023-03-25T22:28:11.332Z,11.02
2023-03-25T22:31:19.775Z,10.94
2023-03-25T22:34:22.461Z,10.89
2023-03-25T22:37:24.766Z,10.84
2023-03-25T22:40:28.870Z,10.81
2023-03-25T22:43:32.643Z,10.83
2023-03-25T22:46:37.353Z,10.82
2023-03-25T22:49:39.645Z,10.78
2023-03-25T22:52:42.335Z,10.74
2023-03-25T22:55:54.884Z,10.61
2023-03-25T22:58:57.891Z,10.49
2023-03-25T23:02:00.816Z,10.48
2023-03-25T23:05:03.922Z,10.53
2023-03-25T23:08:07.650Z,10.48
2023-03-25T23:11:17.302Z,10.35
2023-03-25T23:14:19.767Z,10.31
2023-03-25T23:17:26.394Z,10.45
2023-03-25T23:20:29.430Z,10.45
2023-03-25T23:23:32.949Z,10.32
2023-03-25T23:26:38.943Z,10.38
2023-03-25T23:29:41.916Z,10.21
2023-03-25T23:32:44.388Z,10.29
2023-03-25T23:35:47.063Z,10.25
2023-03-25T23:38:49.973Z,10.34
2023-03-25T23:41:53.727Z,10.39
2023-03-25T23:44:56.029Z,10.21
2023-03-25T23:47:58.751Z,10.36
2023-03-25T23:51:01.093Z,10.20
2023-03-25T23:54:05.911Z,10.26
2023-03-25T23:57:08.300Z,10.31
